sensor_id;sensor_type;location;lat;lon;timestamp;P1;durP1;ratioP1;P2;durP2;ratioP2
48361;SDS011;34510;51.888;5.670;2024-02-21T00:02:06;41.50;;;13.75;;
48361;SDS011;34510;51.888;5.670;2024-02-21T00:07:08;34.60;;;13.23;;
48361;SDS011;34510;51.888;5.670;2024-02-21T00:12:10;38.05;;;12.73;;
48361;SDS011;34510;51.888;5.670;2024-02-21T00:17:12;24.55;;;10.68;;
48361;SDS011;34510;51.888;5.670;2024-02-21T00:22:13;26.88;;;12.07;;
48361;SDS011;34510;51.888;5.670;2024-02-21T00:27:15;33.92;;;11.52;;
48361;SDS011;34510;51.888;5.670;2024-02-21T00:32:17;27.85;;;11.73;;
48361;SDS011;34510;51.888;5.670;2024-02-21T00:37:19;34.17;;;11.30;;
48361;SDS011;34510;51.888;5.670;2024-02-21T00:42:21;33.15;;;10.70;;
48361;SDS011;34510;51.888;5.670;2024-02-21T00:47:23;24.85;;;10.30;;
48361;SDS011;34510;51.888;5.670;2024-02-21T00:52:25;29.23;;;11.95;;
48361;SDS011;34510;51.888;5.670;2024-02-21T00:57:26;26.45;;;11.20;;
48361;SDS011;34510;51.888;5.670;2024-02-21T01:02:31;32.22;;;11.15;;
48361;SDS011;34510;51.888;5.670;2024-02-21T01:07:33;21.48;;;10.05;;
48361;SDS011;34510;51.888;5.670;2024-02-21T01:12:35;25.17;;;11.30;;
48361;SDS011;34510;51.888;5.670;2024-02-21T01:17:37;33.92;;;11.98;;
48361;SDS011;34510;51.888;5.670;2024-02-21T01:22:39;26.73;;;10.82;;
48361;SDS011;34510;51.888;5.670;2024-02-21T01:27:41;22.50;;;11.73;;
48361;SDS011;34510;51.888;5.670;2024-02-21T01:32:43;26.45;;;10.50;;
48361;SDS011;34510;51.888;5.670;2024-02-21T01:37:44;28.02;;;11.80;;
48361;SDS011;34510;51.888;5.670;2024-02-21T01:42:47;27.05;;;10.77;;
48361;SDS011;34510;51.888;5.670;2024-02-21T01:47:50;25.73;;;9.60;;
48361;SDS011;34510;51.888;5.670;2024-02-21T01:52:52;23.70;;;10.82;;
48361;SDS011;34510;51.888;5.670;2024-02-21T01:57:55;26.25;;;11.27;;
48361;SDS011;34510;51.888;5.670;2024-02-21T02:02:57;25.63;;;10.90;;
48361;SDS011;34510;51.888;5.670;2024-02-21T02:07:59;29.48;;;11.32;;
48361;SDS011;34510;51.888;5.670;2024-02-21T02:13:01;32.63;;;10.80;;
48361;SDS011;34510;51.888;5.670;2024-02-21T02:18:03;33.75;;;11.15;;
48361;SDS011;34510;51.888;5.670;2024-02-21T02:23:10;21.40;;;9.77;;
48361;SDS011;34510;51.888;5.670;2024-02-21T02:28:13;33.53;;;11.43;;
48361;SDS011;34510;51.888;5.670;2024-02-21T02:33:15;36.58;;;13.40;;
48361;SDS011;34510;51.888;5.670;2024-02-21T02:38:19;33.08;;;10.00;;
48361;SDS011;34510;51.888;5.670;2024-02-21T02:43:21;26.85;;;9.82;;
48361;SDS011;34510;51.888;5.670;2024-02-21T02:48:23;26.73;;;10.88;;
48361;SDS011;34510;51.888;5.670;2024-02-21T02:53:24;26.27;;;10.65;;
48361;SDS011;34510;51.888;5.670;2024-02-21T02:58:26;23.00;;;10.10;;
48361;SDS011;34510;51.888;5.670;2024-02-21T03:03:29;21.00;;;10.38;;
48361;SDS011;34510;51.888;5.670;2024-02-21T03:08:31;19.88;;;9.13;;
48361;SDS011;34510;51.888;5.670;2024-02-21T03:13:34;25.98;;;9.18;;
48361;SDS011;34510;51.888;5.670;2024-02-21T03:18:36;27.45;;;9.73;;
48361;SDS011;34510;51.888;5.670;2024-02-21T03:23:38;17.92;;;8.32;;
48361;SDS011;34510;51.888;5.670;2024-02-21T03:28:40;21.23;;;8.75;;
48361;SDS011;34510;51.888;5.670;2024-02-21T03:33:42;30.70;;;8.70;;
48361;SDS011;34510;51.888;5.670;2024-02-21T03:38:44;25.55;;;8.60;;
48361;SDS011;34510;51.888;5.670;2024-02-21T03:43:46;26.33;;;7.53;;
48361;SDS011;34510;51.888;5.670;2024-02-21T03:48:48;18.90;;;7.43;;
48361;SDS011;34510;51.888;5.670;2024-02-21T03:53:50;15.05;;;6.50;;
48361;SDS011;34510;51.888;5.670;2024-02-21T03:58:51;20.73;;;7.20;;
48361;SDS011;34510;51.888;5.670;2024-02-21T04:03:53;17.83;;;6.05;;
48361;SDS011;34510;51.888;5.670;2024-02-21T04:08:56;16.92;;;5.85;;
48361;SDS011;34510;51.888;5.670;2024-02-21T04:13:58;21.65;;;6.45;;
48361;SDS011;34510;51.888;5.670;2024-02-21T04:19:00;17.33;;;5.97;;
48361;SDS011;34510;51.888;5.670;2024-02-21T04:24:03;17.23;;;7.57;;
48361;SDS011;34510;51.888;5.670;2024-02-21T04:29:07;18.02;;;6.45;;
48361;SDS011;34510;51.888;5.670;2024-02-21T04:34:09;20.73;;;7.10;;
48361;SDS011;34510;51.888;5.670;2024-02-21T04:39:11;16.50;;;6.10;;
48361;SDS011;34510;51.888;5.670;2024-02-21T04:44:13;15.65;;;5.93;;
48361;SDS011;34510;51.888;5.670;2024-02-21T04:49:15;24.08;;;7.32;;
48361;SDS011;34510;51.888;5.670;2024-02-21T04:54:16;18.23;;;6.60;;
48361;SDS011;34510;51.888;5.670;2024-02-21T04:59:18;19.65;;;8.10;;
48361;SDS011;34510;51.888;5.670;2024-02-21T05:04:20;23.05;;;7.82;;
48361;SDS011;34510;51.888;5.670;2024-02-21T05:09:22;16.02;;;7.90;;
48361;SDS011;34510;51.888;5.670;2024-02-21T05:14:24;14.93;;;7.22;;
48361;SDS011;34510;51.888;5.670;2024-02-21T05:19:26;18.75;;;9.43;;
48361;SDS011;34510;51.888;5.670;2024-02-21T05:24:27;22.58;;;9.60;;
48361;SDS011;34510;51.888;5.670;2024-02-21T05:29:30;22.98;;;9.15;;
48361;SDS011;34510;51.888;5.670;2024-02-21T05:34:32;24.63;;;9.82;;
48361;SDS011;34510;51.888;5.670;2024-02-21T05:39:35;24.80;;;10.57;;
48361;SDS011;34510;51.888;5.670;2024-02-21T05:44:36;36.55;;;9.98;;
48361;SDS011;34510;51.888;5.670;2024-02-21T05:49:39;22.10;;;10.05;;
48361;SDS011;34510;51.888;5.670;2024-02-21T05:54:41;23.00;;;10.63;;
48361;SDS011;34510;51.888;5.670;2024-02-21T05:59:42;22.27;;;8.45;;
48361;SDS011;34510;51.888;5.670;2024-02-21T06:04:45;21.33;;;8.50;;
48361;SDS011;34510;51.888;5.670;2024-02-21T06:09:48;18.65;;;8.68;;
48361;SDS011;34510;51.888;5.670;2024-02-21T06:14:49;19.23;;;7.95;;
48361;SDS011;34510;51.888;5.670;2024-02-21T06:19:51;21.30;;;10.05;;
48361;SDS011;34510;51.888;5.670;2024-02-21T06:24:53;21.08;;;8.90;;
48361;SDS011;34510;51.888;5.670;2024-02-21T06:29:55;15.35;;;7.13;;
48361;SDS011;34510;51.888;5.670;2024-02-21T06:34:57;17.92;;;7.53;;
48361;SDS011;34510;51.888;5.670;2024-02-21T06:39:59;23.65;;;9.02;;
48361;SDS011;34510;51.888;5.670;2024-02-21T06:45:04;21.27;;;7.07;;
48361;SDS011;34510;51.888;5.670;2024-02-21T06:50:06;22.48;;;7.75;;
48361;SDS011;34510;51.888;5.670;2024-02-21T06:55:10;21.00;;;8.10;;
48361;SDS011;34510;51.888;5.670;2024-02-21T07:00:12;23.77;;;8.32;;
48361;SDS011;34510;51.888;5.670;2024-02-21T07:05:14;21.10;;;7.90;;
48361;SDS011;34510;51.888;5.670;2024-02-21T07:10:16;24.40;;;7.55;;
48361;SDS011;34510;51.888;5.670;2024-02-21T07:15:20;31.80;;;9.50;;
48361;SDS011;34510;51.888;5.670;2024-02-21T07:20:22;23.10;;;7.82;;
48361;SDS011;34510;51.888;5.670;2024-02-21T07:25:24;18.50;;;7.80;;
48361;SDS011;34510;51.888;5.670;2024-02-21T07:30:26;19.73;;;7.88;;
48361;SDS011;34510;51.888;5.670;2024-02-21T07:35:27;20.90;;;6.82;;
48361;SDS011;34510;51.888;5.670;2024-02-21T07:40:31;18.45;;;7.38;;
48361;SDS011;34510;51.888;5.670;2024-02-21T07:45:34;18.88;;;6.40;;
48361;SDS011;34510;51.888;5.670;2024-02-21T07:50:35;18.83;;;8.15;;
48361;SDS011;34510;51.888;5.670;2024-02-21T07:55:37;19.60;;;6.97;;
48361;SDS011;34510;51.888;5.670;2024-02-21T08:00:39;25.23;;;7.18;;
48361;SDS011;34510;51.888;5.670;2024-02-21T08:05:41;19.63;;;6.95;;
48361;SDS011;34510;51.888;5.670;2024-02-21T08:10:43;16.92;;;6.57;;
48361;SDS011;34510;51.888;5.670;2024-02-21T08:15:44;16.55;;;8.35;;
48361;SDS011;34510;51.888;5.670;2024-02-21T08:20:46;18.73;;;7.85;;
48361;SDS011;34510;51.888;5.670;2024-02-21T08:25:48;22.33;;;8.80;;
48361;SDS011;34510;51.888;5.670;2024-02-21T08:30:50;14.68;;;6.80;;
48361;SDS011;34510;51.888;5.670;2024-02-21T08:35:51;18.73;;;8.50;;
48361;SDS011;34510;51.888;5.670;2024-02-21T08:40:53;20.20;;;7.25;;
48361;SDS011;34510;51.888;5.670;2024-02-21T08:45:55;15.18;;;6.22;;
48361;SDS011;34510;51.888;5.670;2024-02-21T08:50:57;20.02;;;7.70;;
48361;SDS011;34510;51.888;5.670;2024-02-21T08:55:59;15.57;;;7.47;;
48361;SDS011;34510;51.888;5.670;2024-02-21T09:01:01;17.98;;;6.60;;
48361;SDS011;34510;51.888;5.670;2024-02-21T09:06:03;18.35;;;7.75;;
48361;SDS011;34510;51.888;5.670;2024-02-21T09:11:06;19.75;;;8.02;;
48361;SDS011;34510;51.888;5.670;2024-02-21T09:16:08;19.08;;;7.28;;
48361;SDS011;34510;51.888;5.670;2024-02-21T09:21:10;21.33;;;7.18;;
48361;SDS011;34510;51.888;5.670;2024-02-21T09:26:12;12.20;;;6.90;;
48361;SDS011;34510;51.888;5.670;2024-02-21T09:31:17;9.75;;;6.35;;
48361;SDS011;34510;51.888;5.670;2024-02-21T09:36:19;14.27;;;7.03;;
48361;SDS011;34510;51.888;5.670;2024-02-21T09:41:26;11.73;;;6.60;;
48361;SDS011;34510;51.888;5.670;2024-02-21T09:51:49;16.23;;;6.57;;
48361;SDS011;34510;51.888;5.670;2024-02-21T09:56:53;16.42;;;6.22;;
48361;SDS011;34510;51.888;5.670;2024-02-21T10:01:55;12.73;;;6.13;;
48361;SDS011;34510;51.888;5.670;2024-02-21T10:06:57;12.07;;;5.60;;
48361;SDS011;34510;51.888;5.670;2024-02-21T10:12:08;12.00;;;4.65;;
48361;SDS011;34510;51.888;5.670;2024-02-21T10:17:16;8.40;;;5.47;;
48361;SDS011;34510;51.888;5.670;2024-02-21T10:22:20;10.10;;;5.10;;
48361;SDS011;34510;51.888;5.670;2024-02-21T10:27:23;16.60;;;5.43;;
48361;SDS011;34510;51.888;5.670;2024-02-21T10:32:25;10.38;;;5.60;;
48361;SDS011;34510;51.888;5.670;2024-02-21T10:37:28;12.90;;;6.32;;
48361;SDS011;34510;51.888;5.670;2024-02-21T10:42:29;14.13;;;7.20;;
48361;SDS011;34510;51.888;5.670;2024-02-21T10:47:33;11.13;;;5.25;;
48361;SDS011;34510;51.888;5.670;2024-02-21T10:52:42;11.55;;;6.28;;
48361;SDS011;34510;51.888;5.670;2024-02-21T10:57:53;14.25;;;6.38;;
48361;SDS011;34510;51.888;5.670;2024-02-21T11:02:56;13.38;;;6.55;;
48361;SDS011;34510;51.888;5.670;2024-02-21T11:07:59;13.80;;;7.28;;
48361;SDS011;34510;51.888;5.670;2024-02-21T11:13:06;14.20;;;6.38;;
48361;SDS011;34510;51.888;5.670;2024-02-21T11:18:09;17.48;;;4.70;;
48361;SDS011;34510;51.888;5.670;2024-02-21T11:23:11;13.60;;;6.55;;
48361;SDS011;34510;51.888;5.670;2024-02-21T11:28:13;15.20;;;6.60;;
48361;SDS011;34510;51.888;5.670;2024-02-21T11:33:26;13.48;;;5.75;;
48361;SDS011;34510;51.888;5.670;2024-02-21T11:38:28;12.70;;;5.47;;
48361;SDS011;34510;51.888;5.670;2024-02-21T11:43:30;9.35;;;4.57;;
48361;SDS011;34510;51.888;5.670;2024-02-21T11:48:32;8.38;;;4.57;;
48361;SDS011;34510;51.888;5.670;2024-02-21T11:53:33;8.60;;;4.53;;
48361;SDS011;34510;51.888;5.670;2024-02-21T11:58:44;12.82;;;4.93;;
48361;SDS011;34510;51.888;5.670;2024-02-21T12:03:47;13.20;;;4.75;;
48361;SDS011;34510;51.888;5.670;2024-02-21T12:08:51;8.73;;;4.95;;
48361;SDS011;34510;51.888;5.670;2024-02-21T12:14:01;15.30;;;6.03;;
48361;SDS011;34510;51.888;5.670;2024-02-21T12:19:05;13.68;;;6.47;;
48361;SDS011;34510;51.888;5.670;2024-02-21T12:29:28;9.20;;;4.95;;
48361;SDS011;34510;51.888;5.670;2024-02-21T12:34:31;15.90;;;5.07;;
48361;SDS011;34510;51.888;5.670;2024-02-21T12:39:53;12.00;;;4.60;;
48361;SDS011;34510;51.888;5.670;2024-02-21T12:44:55;12.75;;;4.85;;
48361;SDS011;34510;51.888;5.670;2024-02-21T12:49:56;6.95;;;4.97;;
48361;SDS011;34510;51.888;5.670;2024-02-21T12:54:59;10.63;;;4.53;;
48361;SDS011;34510;51.888;5.670;2024-02-21T13:00:00;7.50;;;4.68;;
48361;SDS011;34510;51.888;5.670;2024-02-21T13:05:02;10.30;;;4.28;;
48361;SDS011;34510;51.888;5.670;2024-02-21T13:10:05;10.15;;;5.18;;
48361;SDS011;34510;51.888;5.670;2024-02-21T13:15:07;10.80;;;4.75;;
48361;SDS011;34510;51.888;5.670;2024-02-21T13:20:11;15.52;;;5.50;;
48361;SDS011;34510;51.888;5.670;2024-02-21T13:25:15;9.68;;;5.10;;
48361;SDS011;34510;51.888;5.670;2024-02-21T13:30:19;16.55;;;5.78;;
48361;SDS011;34510;51.888;5.670;2024-02-21T13:35:21;11.27;;;4.50;;
48361;SDS011;34510;51.888;5.670;2024-02-21T13:40:23;8.50;;;4.22;;
48361;SDS011;34510;51.888;5.670;2024-02-21T13:45:28;11.70;;;5.07;;
48361;SDS011;34510;51.888;5.670;2024-02-21T13:50:30;14.90;;;4.82;;
48361;SDS011;34510;51.888;5.670;2024-02-21T13:55:44;12.60;;;4.88;;
48361;SDS011;34510;51.888;5.670;2024-02-21T14:00:46;14.50;;;4.40;;
48361;SDS011;34510;51.888;5.670;2024-02-21T14:05:48;9.10;;;5.25;;
48361;SDS011;34510;51.888;5.670;2024-02-21T14:10:50;11.65;;;4.82;;
48361;SDS011;34510;51.888;5.670;2024-02-21T14:15:52;10.15;;;3.95;;
48361;SDS011;34510;51.888;5.670;2024-02-21T14:20:54;12.90;;;3.33;;
48361;SDS011;34510;51.888;5.670;2024-02-21T14:25:55;9.35;;;4.40;;
48361;SDS011;34510;51.888;5.670;2024-02-21T14:30:57;13.43;;;3.58;;
48361;SDS011;34510;51.888;5.670;2024-02-21T14:35:59;12.30;;;4.25;;
48361;SDS011;34510;51.888;5.670;2024-02-21T14:41:01;8.93;;;4.22;;
48361;SDS011;34510;51.888;5.670;2024-02-21T14:46:05;10.32;;;3.13;;
48361;SDS011;34510;51.888;5.670;2024-02-21T14:51:07;7.15;;;2.92;;
48361;SDS011;34510;51.888;5.670;2024-02-21T14:56:13;13.82;;;3.15;;
48361;SDS011;34510;51.888;5.670;2024-02-21T15:01:19;5.82;;;2.40;;
48361;SDS011;34510;51.888;5.670;2024-02-21T15:06:20;6.10;;;2.63;;
48361;SDS011;34510;51.888;5.670;2024-02-21T15:11:22;7.75;;;3.10;;
48361;SDS011;34510;51.888;5.670;2024-02-21T15:16:24;14.68;;;5.45;;
48361;SDS011;34510;51.888;5.670;2024-02-21T15:21:26;8.80;;;2.92;;
48361;SDS011;34510;51.888;5.670;2024-02-21T15:26:29;6.97;;;3.55;;
48361;SDS011;34510;51.888;5.670;2024-02-21T15:31:31;7.07;;;3.08;;
48361;SDS011;34510;51.888;5.670;2024-02-21T15:36:33;7.57;;;3.33;;
48361;SDS011;34510;51.888;5.670;2024-02-21T15:41:35;11.45;;;3.58;;
48361;SDS011;34510;51.888;5.670;2024-02-21T15:46:37;13.45;;;4.13;;
48361;SDS011;34510;51.888;5.670;2024-02-21T15:51:38;7.45;;;3.13;;
48361;SDS011;34510;51.888;5.670;2024-02-21T15:56:42;12.30;;;4.10;;
48361;SDS011;34510;51.888;5.670;2024-02-21T16:01:46;11.88;;;4.10;;
48361;SDS011;34510;51.888;5.670;2024-02-21T16:06:48;6.90;;;3.97;;
48361;SDS011;34510;51.888;5.670;2024-02-21T16:11:53;7.65;;;3.25;;
48361;SDS011;34510;51.888;5.670;2024-02-21T16:16:55;11.10;;;4.47;;
48361;SDS011;34510;51.888;5.670;2024-02-21T16:21:59;9.77;;;3.83;;
48361;SDS011;34510;51.888;5.670;2024-02-21T16:27:01;9.45;;;3.85;;
48361;SDS011;34510;51.888;5.670;2024-02-21T16:32:10;7.10;;;3.40;;
48361;SDS011;34510;51.888;5.670;2024-02-21T16:37:12;5.47;;;3.20;;
48361;SDS011;34510;51.888;5.670;2024-02-21T16:42:15;7.03;;;3.42;;
48361;SDS011;34510;51.888;5.670;2024-02-21T16:47:17;6.25;;;3.67;;
48361;SDS011;34510;51.888;5.670;2024-02-21T16:52:18;7.25;;;3.72;;
48361;SDS011;34510;51.888;5.670;2024-02-21T16:57:20;9.50;;;3.17;;
48361;SDS011;34510;51.888;5.670;2024-02-21T17:02:22;15.30;;;4.57;;
48361;SDS011;34510;51.888;5.670;2024-02-21T17:07:26;10.18;;;3.72;;
48361;SDS011;34510;51.888;5.670;2024-02-21T17:12:28;7.20;;;3.90;;
48361;SDS011;34510;51.888;5.670;2024-02-21T17:17:30;9.98;;;3.15;;
48361;SDS011;34510;51.888;5.670;2024-02-21T17:22:32;5.30;;;3.60;;
48361;SDS011;34510;51.888;5.670;2024-02-21T17:27:35;14.45;;;4.28;;
48361;SDS011;34510;51.888;5.670;2024-02-21T17:32:38;6.57;;;2.90;;
48361;SDS011;34510;51.888;5.670;2024-02-21T17:37:40;10.73;;;3.67;;
48361;SDS011;34510;51.888;5.670;2024-02-21T17:42:42;13.02;;;4.28;;
48361;SDS011;34510;51.888;5.670;2024-02-21T17:47:44;8.90;;;4.18;;
48361;SDS011;34510;51.888;5.670;2024-02-21T17:52:45;10.90;;;3.63;;
48361;SDS011;34510;51.888;5.670;2024-02-21T17:57:47;8.48;;;3.10;;
48361;SDS011;34510;51.888;5.670;2024-02-21T18:02:51;8.38;;;3.53;;
48361;SDS011;34510;51.888;5.670;2024-02-21T18:07:52;5.97;;;3.78;;
48361;SDS011;34510;51.888;5.670;2024-02-21T18:12:54;15.57;;;8.43;;
48361;SDS011;34510;51.888;5.670;2024-02-21T18:17:57;6.28;;;3.60;;
48361;SDS011;34510;51.888;5.670;2024-02-21T18:22:59;9.02;;;4.63;;
48361;SDS011;34510;51.888;5.670;2024-02-21T18:28:01;8.57;;;4.65;;
48361;SDS011;34510;51.888;5.670;2024-02-21T18:33:03;14.68;;;4.38;;
48361;SDS011;34510;51.888;5.670;2024-02-21T18:38:05;6.72;;;3.35;;
48361;SDS011;34510;51.888;5.670;2024-02-21T18:43:08;10.10;;;4.13;;
48361;SDS011;34510;51.888;5.670;2024-02-21T18:48:17;6.93;;;3.80;;
48361;SDS011;34510;51.888;5.670;2024-02-21T18:53:18;9.45;;;4.60;;
48361;SDS011;34510;51.888;5.670;2024-02-21T18:58:21;13.90;;;6.45;;
48361;SDS011;34510;51.888;5.670;2024-02-21T19:03:23;11.15;;;4.60;;
48361;SDS011;34510;51.888;5.670;2024-02-21T19:08:25;6.72;;;3.22;;
48361;SDS011;34510;51.888;5.670;2024-02-21T19:13:27;9.07;;;4.88;;
48361;SDS011;34510;51.888;5.670;2024-02-21T19:18:28;7.60;;;4.28;;
48361;SDS011;34510;51.888;5.670;2024-02-21T19:23:30;10.75;;;4.25;;
48361;SDS011;34510;51.888;5.670;2024-02-21T19:28:32;10.35;;;5.57;;
48361;SDS011;34510;51.888;5.670;2024-02-21T19:33:34;15.48;;;5.45;;
48361;SDS011;34510;51.888;5.670;2024-02-21T19:38:36;9.98;;;5.28;;
48361;SDS011;34510;51.888;5.670;2024-02-21T19:43:38;12.25;;;4.95;;
48361;SDS011;34510;51.888;5.670;2024-02-21T19:48:40;7.45;;;4.72;;
48361;SDS011;34510;51.888;5.670;2024-02-21T19:53:42;9.23;;;4.88;;
48361;SDS011;34510;51.888;5.670;2024-02-21T19:58:45;6.15;;;4.32;;
48361;SDS011;34510;51.888;5.670;2024-02-21T20:03:47;7.78;;;5.57;;
48361;SDS011;34510;51.888;5.670;2024-02-21T20:08:50;9.93;;;4.78;;
48361;SDS011;34510;51.888;5.670;2024-02-21T20:13:52;15.65;;;5.32;;
48361;SDS011;34510;51.888;5.670;2024-02-21T20:18:54;6.63;;;4.00;;
48361;SDS011;34510;51.888;5.670;2024-02-21T20:23:55;6.78;;;4.40;;
48361;SDS011;34510;51.888;5.670;2024-02-21T20:28:57;7.03;;;4.57;;
48361;SDS011;34510;51.888;5.670;2024-02-21T20:33:59;7.63;;;4.45;;
48361;SDS011;34510;51.888;5.670;2024-02-21T20:39:02;4.90;;;3.70;;
48361;SDS011;34510;51.888;5.670;2024-02-21T20:44:04;6.85;;;3.67;;
48361;SDS011;34510;51.888;5.670;2024-02-21T20:49:06;4.75;;;3.97;;
48361;SDS011;34510;51.888;5.670;2024-02-21T20:54:08;7.40;;;4.18;;
48361;SDS011;34510;51.888;5.670;2024-02-21T20:59:10;9.68;;;5.53;;
48361;SDS011;34510;51.888;5.670;2024-02-21T21:04:15;7.25;;;4.25;;
48361;SDS011;34510;51.888;5.670;2024-02-21T21:09:17;10.30;;;4.32;;
48361;SDS011;34510;51.888;5.670;2024-02-21T21:14:20;7.05;;;5.03;;
48361;SDS011;34510;51.888;5.670;2024-02-21T21:19:22;6.82;;;4.78;;
48361;SDS011;34510;51.888;5.670;2024-02-21T21:24:24;5.78;;;4.68;;
48361;SDS011;34510;51.888;5.670;2024-02-21T21:29:26;4.93;;;3.63;;
48361;SDS011;34510;51.888;5.670;2024-02-21T21:34:28;5.68;;;3.83;;
48361;SDS011;34510;51.888;5.670;2024-02-21T21:39:29;5.13;;;4.10;;
48361;SDS011;34510;51.888;5.670;2024-02-21T21:44:31;7.13;;;4.18;;
48361;SDS011;34510;51.888;5.670;2024-02-21T21:49:33;5.85;;;4.55;;
48361;SDS011;34510;51.888;5.670;2024-02-21T21:54:36;8.93;;;6.78;;
48361;SDS011;34510;51.888;5.670;2024-02-21T21:59:38;6.07;;;3.63;;
48361;SDS011;34510;51.888;5.670;2024-02-21T22:04:39;7.13;;;3.10;;
48361;SDS011;34510;51.888;5.670;2024-02-21T22:09:41;3.47;;;3.13;;
48361;SDS011;34510;51.888;5.670;2024-02-21T22:14:43;4.22;;;3.17;;
48361;SDS011;34510;51.888;5.670;2024-02-21T22:19:45;6.07;;;2.78;;
48361;SDS011;34510;51.888;5.670;2024-02-21T22:24:47;4.45;;;3.30;;
48361;SDS011;34510;51.888;5.670;2024-02-21T22:29:48;3.38;;;2.70;;
48361;SDS011;34510;51.888;5.670;2024-02-21T22:34:50;6.75;;;3.30;;
48361;SDS011;34510;51.888;5.670;2024-02-21T22:39:52;3.08;;;2.67;;
48361;SDS011;34510;51.888;5.670;2024-02-21T22:44:54;3.65;;;3.05;;
48361;SDS011;34510;51.888;5.670;2024-02-21T22:49:56;5.13;;;2.50;;
48361;SDS011;34510;51.888;5.670;2024-02-21T22:54:58;3.45;;;2.97;;
48361;SDS011;34510;51.888;5.670;2024-02-21T23:00:00;4.75;;;3.40;;
48361;SDS011;34510;51.888;5.670;2024-02-21T23:05:03;3.28;;;2.90;;
48361;SDS011;34510;51.888;5.670;2024-02-21T23:10:07;4.25;;;3.22;;
48361;SDS011;34510;51.888;5.670;2024-02-21T23:15:10;4.45;;;2.90;;
48361;SDS011;34510;51.888;5.670;2024-02-21T23:20:11;4.45;;;3.70;;
48361;SDS011;34510;51.888;5.670;2024-02-21T23:25:13;4.50;;;3.65;;
48361;SDS011;34510;51.888;5.670;2024-02-21T23:30:15;6.30;;;3.80;;
48361;SDS011;34510;51.888;5.670;2024-02-21T23:35:17;4.80;;;3.97;;
48361;SDS011;34510;51.888;5.670;2024-02-21T23:40:20;6.97;;;4.78;;
48361;SDS011;34510;51.888;5.670;2024-02-21T23:45:23;4.30;;;3.65;;
48361;SDS011;34510;51.888;5.670;2024-02-21T23:50:24;7.60;;;5.18;;
48361;SDS011;34510;51.888;5.670;2024-02-21T23:55:26;8.75;;;5.30;;
